VVDN/DAD METAR and TAF weather

Enter ICAO airport designator
Station Type Date Time Source
VVDN METAR 2021/05/15 02:00 UTC NOAA

VVDN 150200Z 15006KT 110V200 9999 FEW015 33/25 Q1009 NOSIG


Station Type Date Time Source
VVDN Decoded METAR 2021/05/15 02:00 UTC NOAA

Da Nang, Vietnam (VVDN) 16-02N 108-11E 7M
May 14, 2021 - 10:00 PM EDT / 2021.05.15 0200 UTC
Wind: from the SSE (150 degrees) at 7 MPH (6 KT) (direction variable):0
Visibility: greater than 7 mile(s):0
Sky conditions: mostly clear
Temperature: 91 F (33 C)
Heat index: 103.5 F (39.7 C):1
Dew Point: 77 F (25 C)
Relative Humidity: 62%
Pressure (altimeter): 29.80 in. Hg (1009 hPa)
ob: VVDN 150200Z 15006KT 110V200 9999 FEW015 33/25 Q1009 NOSIG
cycle: 2

Station Type Date Time Source
VVDN TAF 2021/05/14 18:36 UTC NOAA

TAF VVDN 141700Z 1418/1518 22004KT 9999 FEW015
BECMG 1503/1504 12010KT
TEMPO 1508/1512 TS SCT015 FEW017CB SCT060
BECMG 1512/1514 24005KT

Example: see airport list